METAR & TAF

[Source: ADDS]
METAR
LIPL 150955Z 26005KT 9999 FEW040 29/18 Q1008 RMK SCT VIS MIN 9999 WIND THR31 24005KT WIND THR13 24005KT BLU =
LIPL 150800Z 1509/1518 27004KT CAVOK PROB30 1515/1518 34010KT 8000 TSRA SCT020CB SCT070
TAF
LIPL 150800Z 1509/1518 27004KT CAVOK PROB30 1515/1518 34010KT 8000 TSRA SCT020CB SCT070 =

Notice: Undefined index: sun in /web/htdocs/www.154gruppovirtuale.it/home/modules/mod_wx/tmpl/default.php on line 13
Badge

Bottom B

Bottom B 1 Lorem ipsum dolor sit amet, consectetur adipisicing elit, sed do eiusmod tempor incididunt ut labore et dolore.

Badge

Bottom B

Bottom B3 Lorem ipsum dolor sit amet, consectetur adipisicing elit, sed do eiusmod tempor incididunt ut labore et dolore.

Simulation Platform

 
Badge

Bottom B

Bottom B4 Lorem ipsum dolor sit amet, consectetur adipisicing elit, sed do eiusmod tempor incididunt ut labore et dolore.